Terminal Aerodrome Forecast
Issued by NWS

Home | Current Version | Previous Version | Text Only | Print | Product List | Glossary On
Versions: 1 2 3 4 5 6 7 8 9 10 11 12 13 14 15
000
FTUS45 KABQ 032339
TAFSAF
TAF
KSAF 032339Z 0400/0424 33011KT P6SM SCT090
      TEMPO 0400/0402 33011G19KT
     FM040400 36009KT P6SM FEW120
     FM041800 28010KT P6SM SCT120=

USA.gov is the U.S. government's official web portal to all federal, state and local government web resources and services.